createdAt,value
2022-09-27T00:01:26.145Z,15.95
2022-09-27T00:03:55.563Z,15.93
2022-09-27T00:06:26.330Z,15.95
2022-09-27T00:08:53.813Z,15.98
2022-09-27T00:11:37.065Z,15.94
2022-09-27T00:14:08.474Z,15.93
2022-09-27T00:16:37.017Z,15.82
2022-09-27T00:19:13.924Z,15.85
2022-09-27T00:21:43.534Z,15.88
2022-09-27T00:24:15.833Z,15.89
2022-09-27T00:26:43.385Z,15.91
2022-09-27T00:29:11.102Z,15.90
2022-09-27T00:31:38.755Z,15.89
2022-09-27T00:34:07.640Z,15.96
2022-09-27T00:36:38.373Z,16.01
2022-09-27T00:39:06.170Z,16.03
2022-09-27T00:41:39.189Z,16.06
2022-09-27T00:44:25.162Z,16.04
2022-09-27T00:47:27.214Z,15.91
2022-09-27T00:50:09.632Z,15.81
2022-09-27T00:52:42.222Z,15.95
2022-09-27T00:55:24.346Z,15.88
2022-09-27T00:57:52.472Z,15.91
2022-09-27T01:00:24.234Z,15.94
2022-09-27T01:02:56.510Z,15.88
2022-09-27T01:05:30.862Z,15.90
2022-09-27T01:08:00.878Z,15.91
2022-09-27T01:10:37.257Z,15.83
2022-09-27T01:13:21.050Z,15.84
2022-09-27T01:15:54.171Z,15.87
2022-09-27T01:18:43.612Z,15.85
2022-09-27T01:21:23.175Z,15.88
2022-09-27T01:24:26.902Z,15.86
2022-09-27T01:27:16.861Z,15.86
2022-09-27T01:30:10.965Z,15.85
2022-09-27T01:33:08.220Z,15.86
2022-09-27T01:36:00.339Z,15.88
2022-09-27T01:38:47.737Z,15.92
2022-09-27T01:41:16.805Z,16.03
2022-09-27T01:44:13.356Z,15.61
2022-09-27T01:46:58.980Z,16.03
2022-09-27T01:49:58.141Z,15.99
2022-09-27T01:52:52.740Z,16.00
2022-09-27T01:55:28.781Z,16.05
2022-09-27T01:58:48.103Z,16.05
2022-09-27T02:01:19.255Z,15.98
2022-09-27T02:03:52.190Z,16.02
2022-09-27T02:06:47.052Z,16.04
2022-09-27T02:09:23.141Z,16.07
2022-09-27T02:12:14.073Z,16.05
2022-09-27T02:14:54.976Z,16.06
2022-09-27T02:17:52.068Z,16.07
2022-09-27T02:20:29.825Z,16.04
2022-09-27T02:23:23.643Z,16.17
2022-09-27T02:26:12.302Z,16.17
2022-09-27T02:28:48.406Z,16.12
2022-09-27T02:31:23.903Z,16.02
2022-09-27T02:33:58.461Z,15.96
2022-09-27T02:36:27.846Z,16.09
2022-09-27T02:38:55.544Z,16.10
2022-09-27T02:41:24.671Z,16.13
2022-09-27T02:43:57.110Z,16.13
2022-09-27T02:46:32.475Z,16.11
2022-09-27T02:49:33.541Z,16.15
2022-09-27T02:52:44.754Z,16.13
2022-09-27T02:55:15.417Z,16.07
2022-09-27T02:58:18.135Z,16.04
2022-09-27T03:01:29.837Z,16.03
2022-09-27T03:04:29.198Z,16.02
2022-09-27T03:07:00.299Z,15.99
2022-09-27T03:09:42.373Z,15.99
2022-09-27T03:12:09.853Z,16.00
2022-09-27T03:14:37.181Z,16.04
2022-09-27T03:17:19.508Z,16.02
2022-09-27T03:20:05.791Z,16.04
2022-09-27T03:22:49.172Z,16.07
2022-09-27T03:25:17.044Z,16.02
2022-09-27T03:27:47.627Z,15.93
2022-09-27T03:30:16.252Z,16.03
2022-09-27T03:32:47.809Z,15.96
2022-09-27T03:35:33.637Z,16.00
2022-09-27T03:38:01.594Z,16.00
2022-09-27T03:40:28.768Z,15.96
2022-09-27T03:42:56.385Z,15.99
2022-09-27T03:45:23.604Z,15.93
2022-09-27T03:48:01.673Z,15.94
2022-09-27T03:50:36.103Z,16.03
2022-09-27T03:53:05.189Z,16.01
2022-09-27T03:55:33.413Z,15.99
2022-09-27T03:58:01.735Z,15.98
2022-09-27T04:00:29.600Z,15.91
2022-09-27T04:02:56.857Z,15.88
2022-09-27T04:05:25.928Z,15.90
2022-09-27T04:07:57.842Z,15.96
2022-09-27T04:10:25.288Z,15.95
2022-09-27T04:12:52.731Z,15.93
2022-09-27T04:15:23.776Z,15.86
2022-09-27T04:17:52.273Z,15.87
2022-09-27T04:20:46.678Z,15.82
2022-09-27T04:23:14.839Z,15.82
2022-09-27T04:25:49.965Z,15.87
2022-09-27T04:28:43.309Z,15.91
2022-09-27T04:31:12.386Z,15.96
2022-09-27T04:34:14.867Z,15.90
2022-09-27T04:36:42.518Z,15.93
2022-09-27T04:39:16.299Z,15.96
2022-09-27T04:41:46.082Z,16.00
2022-09-27T04:44:13.741Z,16.03
2022-09-27T04:46:51.641Z,16.07
2022-09-27T04:49:19.407Z,16.11
2022-09-27T04:51:47.411Z,16.06
2022-09-27T04:54:14.862Z,16.17
2022-09-27T04:56:51.515Z,16.25
2022-09-27T04:59:19.939Z,16.28
2022-09-27T05:01:47.717Z,16.36
2022-09-27T05:04:32.042Z,16.38
2022-09-27T05:07:01.016Z,16.42
2022-09-27T05:09:37.057Z,16.49
2022-09-27T05:12:07.576Z,16.50
2022-09-27T05:14:35.065Z,16.57
2022-09-27T05:17:10.132Z,16.64
2022-09-27T05:20:06.675Z,16.51
2022-09-27T05:22:41.341Z,16.53
2022-09-27T05:25:09.072Z,16.54
2022-09-27T05:27:36.508Z,16.60
2022-09-27T05:30:05.074Z,16.66
2022-09-27T05:32:51.569Z,16.65
2022-09-27T05:35:38.049Z,16.77
2022-09-27T05:38:06.502Z,16.79
2022-09-27T05:40:41.439Z,16.89
2022-09-27T05:43:11.675Z,16.95
2022-09-27T05:45:39.135Z,17.04
2022-09-27T05:48:07.515Z,17.09
2022-09-27T05:50:43.142Z,17.14
2022-09-27T05:53:11.472Z,17.14
2022-09-27T05:55:38.730Z,17.17
2022-09-27T05:58:10.029Z,17.26
2022-09-27T06:00:45.794Z,17.32
2022-09-27T06:03:47.379Z,17.38
2022-09-27T06:06:39.349Z,17.43
2022-09-27T06:09:14.500Z,17.43
2022-09-27T06:11:45.486Z,17.57
2022-09-27T06:14:15.702Z,17.67
2022-09-27T06:17:11.912Z,17.79
2022-09-27T06:19:42.949Z,17.84
2022-09-27T06:22:10.249Z,17.94
2022-09-27T06:24:53.835Z,17.89
2022-09-27T06:27:26.414Z,17.90
2022-09-27T06:30:20.585Z,18.02
2022-09-27T06:33:02.926Z,18.16
2022-09-27T06:35:38.903Z,18.01
2022-09-27T06:38:12.053Z,18.17
2022-09-27T06:40:46.816Z,18.21
2022-09-27T06:43:22.555Z,18.33
2022-09-27T06:46:06.192Z,18.50
2022-09-27T06:48:46.127Z,18.62
2022-09-27T06:51:18.176Z,18.71
2022-09-27T06:53:45.752Z,18.86
2022-09-27T06:56:13.801Z,19.08
2022-09-27T06:59:06.545Z,19.15
2022-09-27T07:01:42.901Z,19.24
2022-09-27T07:04:19.506Z,19.25
2022-09-27T07:06:58.214Z,19.42
2022-09-27T07:09:29.329Z,19.60
2022-09-27T07:11:56.719Z,19.68
2022-09-27T07:14:26.584Z,19.81
2022-09-27T07:16:54.944Z,19.85
2022-09-27T07:19:22.261Z,19.85
2022-09-27T07:22:12.724Z,19.93
2022-09-27T07:24:41.946Z,19.86
2022-09-27T07:27:09.765Z,19.93
2022-09-27T07:29:37.323Z,19.90
2022-09-27T07:32:05.276Z,19.94
2022-09-27T07:34:34.319Z,20.01
2022-09-27T07:37:05.587Z,20.04
2022-09-27T07:39:37.022Z,20.02
2022-09-27T07:42:06.472Z,20.14
2022-09-27T07:44:36.260Z,20.26
2022-09-27T07:47:32.175Z,20.31
2022-09-27T07:50:12.591Z,20.37
2022-09-27T07:52:51.285Z,20.35
2022-09-27T07:55:36.258Z,20.43
2022-09-27T07:58:11.672Z,20.63
2022-09-27T08:00:41.049Z,20.80
2022-09-27T08:03:12.180Z,20.85
2022-09-27T08:05:39.384Z,20.99
2022-09-27T08:08:07.160Z,21.20
2022-09-27T08:10:35.590Z,21.30
2022-09-27T08:13:05.337Z,21.45
2022-09-27T08:15:35.905Z,21.49
2022-09-27T08:18:03.496Z,21.63
2022-09-27T08:21:00.704Z,21.76
2022-09-27T08:24:06.783Z,21.75
2022-09-27T08:26:54.447Z,21.81
2022-09-27T08:29:32.531Z,21.91
2022-09-27T08:32:00.981Z,21.88
2022-09-27T08:34:29.448Z,21.87
2022-09-27T08:36:56.754Z,22.01
2022-09-27T08:39:25.100Z,22.00
2022-09-27T08:42:07.593Z,22.09
2022-09-27T08:44:38.314Z,22.09
2022-09-27T08:47:15.198Z,22.04
2022-09-27T08:50:07.254Z,22.09
2022-09-27T08:52:42.694Z,22.14
2022-09-27T08:55:20.742Z,22.23
2022-09-27T08:57:56.430Z,22.28
2022-09-27T09:00:27.023Z,22.42
2022-09-27T09:02:58.106Z,22.47
2022-09-27T09:05:34.951Z,22.66
2022-09-27T09:08:43.591Z,22.83
2022-09-27T09:11:58.311Z,22.81
2022-09-27T09:14:34.369Z,23.05
2022-09-27T09:17:29.169Z,23.08
2022-09-27T09:20:32.887Z,23.00
2022-09-27T09:23:25.977Z,23.16
2022-09-27T09:26:18.243Z,23.22
2022-09-27T09:29:12.686Z,23.39
2022-09-27T09:31:53.201Z,23.43
2022-09-27T09:34:28.259Z,23.44
2022-09-27T09:37:06.157Z,23.45
2022-09-27T09:39:46.606Z,23.45
2022-09-27T09:42:35.895Z,23.44
2022-09-27T09:45:18.075Z,23.39
2022-09-27T09:47:54.925Z,23.33
2022-09-27T09:50:29.112Z,23.38
2022-09-27T09:53:13.431Z,23.40
2022-09-27T09:55:46.559Z,23.42
2022-09-27T09:58:23.551Z,23.59
2022-09-27T10:01:00.685Z,23.52
2022-09-27T10:03:29.119Z,23.53
2022-09-27T10:05:56.423Z,23.64
2022-09-27T10:08:24.942Z,23.58
2022-09-27T10:11:25.826Z,23.54
2022-09-27T10:14:14.413Z,23.53
2022-09-27T10:16:48.798Z,23.65
2022-09-27T10:19:26.933Z,23.56
2022-09-27T10:21:55.104Z,23.46
2022-09-27T10:24:23.657Z,23.50
2022-09-27T10:27:05.915Z,23.57
2022-09-27T10:29:39.238Z,23.67
2022-09-27T10:32:31.115Z,23.56
2022-09-27T10:35:30.341Z,23.74
2022-09-27T10:38:23.565Z,23.58
2022-09-27T10:40:56.817Z,23.61
2022-09-27T10:43:31.067Z,23.40
2022-09-27T10:46:22.259Z,23.43
2022-09-27T10:49:17.815Z,23.53
2022-09-27T10:51:49.921Z,23.63
2022-09-27T10:54:27.812Z,23.56
2022-09-27T10:57:14.557Z,23.48
2022-09-27T10:59:50.405Z,23.48
2022-09-27T11:02:37.614Z,23.40
2022-09-27T11:05:15.403Z,23.18
2022-09-27T11:07:53.890Z,23.00
2022-09-27T11:10:37.635Z,23.09
2022-09-27T11:13:15.282Z,23.13
2022-09-27T11:16:06.297Z,23.30
2022-09-27T11:18:52.814Z,23.34
2022-09-27T11:21:20.456Z,23.50
2022-09-27T11:24:11.968Z,23.53
2022-09-27T11:27:18.290Z,23.71
2022-09-27T11:30:20.247Z,23.88
2022-09-27T11:33:55.112Z,24.14
2022-09-27T11:37:02.360Z,24.21
2022-09-27T11:39:54.291Z,24.04
2022-09-27T11:42:43.448Z,24.24
2022-09-27T11:45:50.274Z,24.13
2022-09-27T11:48:30.274Z,24.27
2022-09-27T11:51:03.956Z,24.38
2022-09-27T11:53:40.795Z,24.40
2022-09-27T11:56:29.951Z,24.36
2022-09-27T11:59:25.291Z,24.60
2022-09-27T12:01:54.338Z,24.76
2022-09-27T12:04:24.589Z,24.86
2022-09-27T12:07:03.937Z,24.78
2022-09-27T12:09:36.435Z,24.64
2022-09-27T12:12:13.286Z,24.72
2022-09-27T12:14:48.692Z,24.69
2022-09-27T12:17:21.922Z,24.69
2022-09-27T12:19:58.481Z,24.48
2022-09-27T12:23:06.052Z,24.53
2022-09-27T12:25:58.820Z,24.44
2022-09-27T12:28:51.213Z,24.47
2022-09-27T12:31:37.503Z,24.24
2022-09-27T12:34:22.629Z,24.41
2022-09-27T12:37:19.803Z,24.30
2022-09-27T12:39:55.907Z,24.20
2022-09-27T12:42:36.681Z,24.18
2022-09-27T12:45:15.084Z,24.02
2022-09-27T12:48:08.684Z,24.04
2022-09-27T12:50:58.206Z,24.06
2022-09-27T12:53:38.206Z,24.23
2022-09-27T12:56:31.197Z,24.20
2022-09-27T12:59:17.630Z,24.16
2022-09-27T13:02:24.018Z,23.84
2022-09-27T13:05:00.844Z,23.74
2022-09-27T13:07:47.970Z,23.74
2022-09-27T13:10:34.135Z,23.72
2022-09-27T13:13:13.061Z,23.76
2022-09-27T13:15:44.909Z,23.84
2022-09-27T13:18:38.197Z,23.84
2022-09-27T13:21:07.374Z,23.58
2022-09-27T13:23:40.592Z,23.44
2022-09-27T13:26:32.746Z,23.61
2022-09-27T13:29:04.846Z,23.67
2022-09-27T13:31:55.135Z,23.82
2022-09-27T13:35:18.612Z,23.90
2022-09-27T13:37:51.734Z,23.93
2022-09-27T13:40:32.355Z,23.94
2022-09-27T13:43:13.523Z,24.12
2022-09-27T13:46:21.074Z,24.23
2022-09-27T13:48:52.919Z,24.26
2022-09-27T13:51:31.840Z,24.29
2022-09-27T13:54:26.165Z,24.31
2022-09-27T13:56:57.952Z,24.32
2022-09-27T13:59:44.341Z,24.21
2022-09-27T14:03:25.664Z,24.06
2022-09-27T14:06:21.342Z,24.06
2022-09-27T14:08:59.241Z,23.97
2022-09-27T14:11:32.589Z,23.83
2022-09-27T14:14:03.337Z,23.90
2022-09-27T14:16:40.712Z,23.98
2022-09-27T14:19:16.453Z,23.87
2022-09-27T14:22:23.583Z,23.79
2022-09-27T14:25:05.049Z,23.66
2022-09-27T14:27:40.794Z,23.61
2022-09-27T14:30:30.486Z,23.61
2022-09-27T14:33:31.217Z,23.32
2022-09-27T14:36:37.496Z,23.44
2022-09-27T14:39:14.110Z,23.43
2022-09-27T14:41:41.758Z,23.34
2022-09-27T14:44:18.771Z,23.39
2022-09-27T14:46:47.059Z,23.35
2022-09-27T14:49:25.063Z,23.39
2022-09-27T14:51:57.165Z,23.40
2022-09-27T14:54:30.657Z,23.33
2022-09-27T14:57:00.282Z,23.32
2022-09-27T14:59:34.339Z,23.20
2022-09-27T15:02:10.429Z,23.14
2022-09-27T15:04:38.709Z,23.07
2022-09-27T15:07:06.031Z,22.96
2022-09-27T15:09:33.741Z,22.89
2022-09-27T15:12:05.679Z,22.81
2022-09-27T15:14:34.202Z,22.78
2022-09-27T15:17:06.196Z,22.66
2022-09-27T15:19:34.591Z,22.43
2022-09-27T15:22:31.875Z,22.66
2022-09-27T15:25:19.796Z,22.58
2022-09-27T15:27:50.092Z,22.47
2022-09-27T15:30:20.044Z,22.36
2022-09-27T15:32:53.247Z,22.22
2022-09-27T15:35:33.327Z,21.98
2022-09-27T15:38:26.565Z,21.72
2022-09-27T15:40:53.852Z,21.61
2022-09-27T15:43:32.202Z,21.45
2022-09-27T15:46:26.662Z,21.35
2022-09-27T15:49:21.866Z,21.27
2022-09-27T15:51:52.135Z,21.19
2022-09-27T15:54:21.278Z,21.06
2022-09-27T15:56:55.106Z,21.02
2022-09-27T15:59:28.092Z,20.92
2022-09-27T16:01:57.257Z,20.92
2022-09-27T16:04:26.382Z,20.88
2022-09-27T16:06:54.863Z,20.84
2022-09-27T16:09:22.247Z,20.85
2022-09-27T16:11:50.975Z,20.83
2022-09-27T16:14:19.811Z,20.77
2022-09-27T16:16:52.185Z,20.73
2022-09-27T16:19:19.444Z,20.70
2022-09-27T16:21:48.512Z,20.71
2022-09-27T16:24:17.436Z,20.73
2022-09-27T16:26:44.914Z,20.70
2022-09-27T16:29:14.791Z,20.69
2022-09-27T16:31:42.827Z,20.69
2022-09-27T16:34:11.259Z,20.62
2022-09-27T16:36:39.323Z,20.64
2022-09-27T16:39:08.278Z,20.53
2022-09-27T16:41:35.868Z,20.42
2022-09-27T16:44:11.047Z,20.45
2022-09-27T16:46:42.061Z,20.43
2022-09-27T16:49:31.899Z,20.38
2022-09-27T16:52:01.710Z,20.31
2022-09-27T16:54:29.808Z,20.33
2022-09-27T16:56:58.828Z,20.23
2022-09-27T16:59:26.334Z,20.21
2022-09-27T17:01:58.101Z,19.99
2022-09-27T17:04:27.535Z,19.49
2022-09-27T17:06:55.759Z,18.91
2022-09-27T17:09:23.145Z,18.34
2022-09-27T17:11:50.939Z,17.92
2022-09-27T17:14:18.755Z,17.76
2022-09-27T17:16:47.736Z,17.61
2022-09-27T17:19:16.903Z,17.53
2022-09-27T17:21:45.673Z,17.59
2022-09-27T17:24:17.149Z,17.51
2022-09-27T17:26:44.677Z,17.52
2022-09-27T17:29:12.652Z,17.48
2022-09-27T17:31:41.038Z,17.53
2022-09-27T17:34:12.452Z,17.51
2022-09-27T17:36:41.716Z,17.49
2022-09-27T17:39:14.048Z,17.52
2022-09-27T17:41:41.312Z,17.59
2022-09-27T17:44:12.866Z,17.61
2022-09-27T17:46:40.964Z,17.59
2022-09-27T17:49:28.504Z,17.66
2022-09-27T17:51:55.771Z,17.69
2022-09-27T17:54:26.255Z,17.59
2022-09-27T17:56:53.793Z,17.61
2022-09-27T17:59:22.173Z,17.55
2022-09-27T18:01:54.136Z,17.49
2022-09-27T18:04:21.532Z,17.52
2022-09-27T18:06:48.672Z,17.59
2022-09-27T18:09:16.930Z,17.65
2022-09-27T18:11:45.416Z,17.67
2022-09-27T18:14:12.874Z,17.69
2022-09-27T18:16:43.289Z,17.69
2022-09-27T18:19:15.494Z,17.64
2022-09-27T18:21:43.803Z,17.67
2022-09-27T18:24:11.785Z,17.66
2022-09-27T18:26:43.106Z,17.71
2022-09-27T18:29:12.070Z,17.60
2022-09-27T18:31:47.370Z,17.49
2022-09-27T18:34:17.915Z,17.60
2022-09-27T18:36:45.660Z,17.60
2022-09-27T18:39:19.326Z,17.58
2022-09-27T18:41:50.964Z,17.59
2022-09-27T18:44:18.243Z,17.49
2022-09-27T18:46:46.287Z,17.52
2022-09-27T18:49:15.223Z,17.52
2022-09-27T18:51:46.361Z,17.45
2022-09-27T18:54:19.422Z,17.48
2022-09-27T18:56:48.545Z,17.45
2022-09-27T18:59:17.418Z,17.51
2022-09-27T19:01:46.125Z,17.48
2022-09-27T19:04:20.444Z,17.19
2022-09-27T19:06:50.574Z,17.42
2022-09-27T19:09:18.410Z,17.38
2022-09-27T19:11:46.091Z,17.37
2022-09-27T19:14:22.809Z,17.33
2022-09-27T19:16:50.088Z,17.40
2022-09-27T19:19:20.173Z,17.41
2022-09-27T19:22:01.654Z,17.40
2022-09-27T19:24:29.103Z,17.41
2022-09-27T19:27:23.987Z,17.45
2022-09-27T19:29:51.726Z,17.42
2022-09-27T19:32:19.570Z,17.41
2022-09-27T19:34:47.802Z,17.45
2022-09-27T19:37:14.805Z,17.49
2022-09-27T19:39:41.999Z,17.42
2022-09-27T19:42:09.064Z,17.30
2022-09-27T19:44:36.358Z,17.30
2022-09-27T19:47:03.468Z,17.20
2022-09-27T19:49:30.690Z,17.26
2022-09-27T19:51:57.736Z,17.20
2022-09-27T19:54:25.074Z,17.14
2022-09-27T19:56:52.252Z,17.13
2022-09-27T19:59:19.549Z,17.08
2022-09-27T20:01:46.825Z,17.05
2022-09-27T20:04:14.269Z,17.06
2022-09-27T20:06:41.668Z,17.02
2022-09-27T20:09:10.239Z,16.91
2022-09-27T20:11:37.587Z,16.96
2022-09-27T20:14:04.714Z,16.97
2022-09-27T20:16:32.309Z,16.93
2022-09-27T20:19:01.252Z,16.90
2022-09-27T20:21:32.943Z,16.79
2022-09-27T20:24:02.171Z,16.81
2022-09-27T20:26:31.386Z,16.83
2022-09-27T20:29:00.547Z,16.86
2022-09-27T20:31:30.395Z,16.92
2022-09-27T20:33:57.650Z,16.90
2022-09-27T20:36:33.844Z,16.90
2022-09-27T20:39:06.085Z,16.91
2022-09-27T20:41:38.421Z,16.90
2022-09-27T20:44:10.935Z,16.88
2022-09-27T20:46:39.482Z,16.89
2022-09-27T20:49:14.702Z,16.89
2022-09-27T20:51:44.001Z,16.91
2022-09-27T20:54:12.950Z,16.94
2022-09-27T20:56:42.939Z,16.92
2022-09-27T20:59:16.115Z,16.85
2022-09-27T21:01:45.639Z,16.82
2022-09-27T21:04:17.384Z,16.87
2022-09-27T21:06:44.948Z,16.85
2022-09-27T21:09:18.647Z,16.87
2022-09-27T21:11:48.693Z,16.80
2022-09-27T21:14:16.016Z,16.74
2022-09-27T21:16:43.209Z,16.71
2022-09-27T21:19:10.737Z,16.76
2022-09-27T21:21:37.849Z,16.72
2022-09-27T21:24:05.348Z,16.73
2022-09-27T21:26:34.144Z,16.69
2022-09-27T21:29:11.869Z,16.65
2022-09-27T21:31:39.138Z,16.66
2022-09-27T21:34:06.943Z,16.62
2022-09-27T21:36:39.041Z,16.56
2022-09-27T21:39:08.935Z,16.52
2022-09-27T21:41:38.924Z,16.46
2022-09-27T21:44:06.961Z,16.46
2022-09-27T21:46:34.442Z,16.48
2022-09-27T21:49:02.734Z,16.42
2022-09-27T21:51:37.474Z,16.42
2022-09-27T21:54:07.674Z,16.35
2022-09-27T21:56:37.668Z,16.36
2022-09-27T21:59:05.999Z,16.35
2022-09-27T22:01:35.096Z,16.27
2022-09-27T22:04:05.083Z,16.24
2022-09-27T22:06:37.474Z,16.19
2022-09-27T22:09:11.793Z,16.13
2022-09-27T22:11:43.975Z,16.12
2022-09-27T22:14:12.453Z,16.15
2022-09-27T22:16:39.869Z,16.16
2022-09-27T22:19:08.127Z,16.10
2022-09-27T22:21:37.154Z,15.96
2022-09-27T22:24:08.222Z,16.06
2022-09-27T22:26:36.738Z,15.99
2022-09-27T22:29:05.058Z,16.01
2022-09-27T22:31:32.272Z,16.07
2022-09-27T22:34:02.533Z,16.05
2022-09-27T22:36:31.066Z,16.01
2022-09-27T22:38:58.438Z,15.99
2022-09-27T22:41:26.109Z,15.91
2022-09-27T22:43:53.698Z,15.84
2022-09-27T22:46:22.063Z,15.77
2022-09-27T22:48:49.846Z,15.75
2022-09-27T22:51:17.934Z,15.77
2022-09-27T22:53:46.310Z,15.72
2022-09-27T22:56:20.392Z,15.67
2022-09-27T22:58:48.697Z,15.67
2022-09-27T23:01:17.314Z,15.72
2022-09-27T23:03:45.802Z,15.72
2022-09-27T23:06:15.024Z,15.71
2022-09-27T23:08:42.644Z,15.73
2022-09-27T23:11:15.157Z,15.64
2022-09-27T23:13:43.986Z,15.40
2022-09-27T23:16:20.302Z,15.61
2022-09-27T23:18:47.923Z,15.59
2022-09-27T23:21:16.151Z,15.64
2022-09-27T23:23:45.173Z,15.63
2022-09-27T23:26:14.762Z,15.50
2022-09-27T23:28:42.397Z,15.61
2022-09-27T23:31:14.602Z,15.61
2022-09-27T23:33:45.638Z,15.59
2022-09-27T23:36:18.622Z,15.65
2022-09-27T23:38:48.658Z,15.69
2022-09-27T23:41:17.129Z,15.64
2022-09-27T23:43:45.219Z,15.70
2022-09-27T23:46:12.587Z,15.69
2022-09-27T23:48:40.295Z,15.68
2022-09-27T23:51:10.296Z,15.64
2022-09-27T23:53:38.656Z,15.54
2022-09-27T23:56:13.000Z,15.53
2022-09-27T23:58:42.947Z,15.65
